Swansea, Illinois
Current Conditions -  °F | °C
As of 2:08 AM on Friday 24 Oct 2014 (Local Time) from KBLV Reporting Station
Scattered Clouds Scattered Clouds  
Wind Chill: 52°   Ceiling: Unl
Heat Index: 52°   Visibility: 7mi
Dew Point: 48°   Wind: 1mph
Humidity: 88%   Direction: 130°SE
Pressure: 30.08"   Gusts: NA
Location:  38.5093°N, 89.8955°W
Report Text: KBLV 240708Z AUTO 13001KT 7SM R14L/5000FT SCT049 11/09 A3008 RMK AO2
Loading
Personal Weather Stations






























Interactive Weather Map
Tropical Storm Tracking
New forecast layout! Learn more

10-Day Weather Forecast

Advertisements
Track Severe Weather on mobile